createdAt,value
2019-03-15T00:01:59.233Z,52.80
2019-03-15T00:04:28.893Z,53.83
2019-03-15T00:07:00.006Z,49.93
2019-03-15T00:09:30.111Z,51.50
2019-03-15T00:11:59.769Z,52.30
2019-03-15T00:14:29.437Z,52.73
2019-03-15T00:16:59.111Z,51.47
2019-03-15T00:19:28.778Z,51.57
2019-03-15T00:21:58.442Z,52.80
2019-03-15T00:24:28.133Z,50.83
2019-03-15T00:26:57.783Z,52.03
2019-03-15T00:29:27.436Z,52.30
2019-03-15T00:31:57.214Z,49.90
2019-03-15T00:34:26.878Z,51.03
2019-03-15T00:36:56.550Z,55.30
2019-03-15T00:39:26.247Z,51.60
2019-03-15T00:41:55.893Z,48.23
2019-03-15T00:44:25.552Z,49.53
2019-03-15T00:46:55.243Z,50.27
2019-03-15T00:49:24.847Z,49.93
2019-03-15T00:51:54.544Z,50.37
2019-03-15T00:54:25.451Z,52.87
2019-03-15T00:56:55.375Z,51.07
2019-03-15T00:59:26.599Z,49.50
2019-03-15T01:01:56.273Z,54.70
2019-03-15T01:04:25.877Z,54.30
2019-03-15T01:06:55.564Z,54.03
2019-03-15T01:09:25.247Z,50.57
2019-03-15T01:11:54.915Z,52.87
2019-03-15T01:14:25.976Z,53.77
2019-03-15T01:16:55.883Z,57.40
2019-03-15T01:19:25.535Z,51.70
2019-03-15T01:21:55.196Z,53.87
2019-03-15T01:24:25.488Z,52.43
2019-03-15T01:26:55.148Z,50.97
2019-03-15T01:29:24.938Z,51.33
2019-03-15T01:31:54.922Z,51.57
2019-03-15T01:34:24.604Z,49.67
2019-03-15T01:36:54.271Z,51.27
2019-03-15T01:39:23.910Z,48.40
2019-03-15T01:41:53.488Z,49.10
2019-03-15T01:44:23.166Z,49.87
2019-03-15T01:46:52.856Z,50.03
2019-03-15T01:49:22.520Z,50.37
2019-03-15T01:51:52.189Z,50.80
2019-03-15T01:54:21.917Z,51.97
2019-03-15T01:56:51.580Z,51.00
2019-03-15T01:59:21.253Z,48.17
2019-03-15T02:01:50.876Z,48.83
2019-03-15T02:04:20.562Z,49.93
2019-03-15T02:06:50.255Z,49.53
2019-03-15T02:09:20.092Z,48.80
2019-03-15T02:11:49.898Z,51.40
2019-03-15T02:14:19.927Z,48.50
2019-03-15T02:16:49.602Z,51.00
2019-03-15T02:19:19.249Z,48.07
2019-03-15T02:21:49.088Z,49.70
2019-03-15T02:24:18.774Z,48.07
2019-03-15T02:26:50.506Z,48.53
2019-03-15T02:29:22.575Z,49.20
2019-03-15T02:31:52.249Z,48.37
2019-03-15T02:34:21.926Z,50.50
2019-03-15T02:36:51.564Z,48.30
2019-03-15T02:39:22.717Z,49.90
2019-03-15T02:41:53.587Z,48.43
2019-03-15T02:44:23.252Z,49.20
2019-03-15T02:46:52.926Z,47.57
2019-03-15T02:49:22.589Z,47.83
2019-03-15T02:51:52.589Z,46.73
2019-03-15T02:54:22.299Z,48.37
2019-03-15T02:56:52.141Z,48.67
2019-03-15T02:59:21.821Z,47.67
2019-03-15T03:01:51.504Z,48.17
2019-03-15T03:04:21.088Z,50.13
2019-03-15T03:06:50.762Z,47.53
2019-03-15T03:09:22.058Z,48.13
2019-03-15T03:11:51.718Z,47.20
2019-03-15T03:14:21.843Z,49.67
2019-03-15T03:16:51.526Z,48.97
2019-03-15T03:19:21.172Z,48.13
2019-03-15T03:21:50.833Z,48.43
2019-03-15T03:24:20.533Z,49.83
2019-03-15T03:26:50.178Z,48.77
2019-03-15T03:29:21.818Z,49.60
2019-03-15T03:31:51.701Z,49.47
2019-03-15T03:34:21.379Z,48.53
2019-03-15T03:36:52.240Z,49.13
2019-03-15T03:39:22.378Z,48.90
2019-03-15T03:41:52.285Z,48.07
2019-03-15T03:44:21.925Z,49.93
2019-03-15T03:47:10.828Z,48.80
2019-03-15T03:49:40.533Z,48.87
2019-03-15T03:52:10.203Z,49.00
2019-03-15T03:54:39.861Z,48.50
2019-03-15T03:57:11.178Z,49.13
2019-03-15T03:59:40.839Z,49.27
2019-03-15T04:02:10.713Z,49.03
2019-03-15T04:04:40.703Z,48.63
2019-03-15T04:07:10.356Z,48.20
2019-03-15T04:09:40.226Z,48.33
2019-03-15T04:12:10.011Z,49.03
2019-03-15T04:14:39.951Z,48.67
2019-03-15T04:17:09.599Z,50.47
2019-03-15T04:19:39.277Z,49.83
2019-03-15T04:22:28.201Z,49.33
2019-03-15T04:24:57.802Z,49.73
2019-03-15T04:27:27.471Z,50.20
2019-03-15T04:29:57.143Z,48.27
2019-03-15T04:32:26.817Z,50.10
2019-03-15T04:34:56.482Z,48.57
2019-03-15T04:37:26.164Z,49.30
2019-03-15T04:39:55.820Z,48.90
2019-03-15T04:42:25.469Z,48.90
2019-03-15T04:44:55.136Z,48.83
2019-03-15T04:47:44.184Z,48.97
2019-03-15T04:50:14.023Z,49.10
2019-03-15T04:52:43.691Z,49.07
2019-03-15T04:55:13.383Z,48.77
2019-03-15T04:57:43.036Z,49.27
2019-03-15T05:00:14.568Z,48.83
2019-03-15T05:02:44.263Z,50.07
2019-03-15T05:05:13.903Z,51.60
2019-03-15T05:07:43.571Z,49.43
2019-03-15T05:10:17.553Z,49.07
2019-03-15T05:12:47.232Z,50.40
2019-03-15T05:15:18.323Z,49.03
2019-03-15T05:17:47.985Z,50.33
2019-03-15T05:20:20.896Z,50.30
2019-03-15T05:22:49.016Z,50.27
2019-03-15T05:25:18.687Z,49.03
2019-03-15T05:27:51.040Z,49.77
2019-03-15T05:30:21.087Z,49.63
2019-03-15T05:32:50.783Z,49.67
2019-03-15T05:35:20.436Z,48.73
2019-03-15T05:37:50.111Z,48.97
2019-03-15T05:40:19.801Z,49.37
2019-03-15T05:42:49.466Z,50.30
2019-03-15T05:45:19.127Z,49.13
2019-03-15T05:47:48.818Z,50.43
2019-03-15T05:50:18.494Z,50.93
2019-03-15T05:52:48.134Z,51.17
2019-03-15T05:55:17.885Z,54.50
2019-03-15T05:57:47.541Z,50.67
2019-03-15T06:00:17.493Z,52.63
2019-03-15T06:02:47.165Z,52.73
2019-03-15T06:05:16.810Z,50.57
2019-03-15T06:07:46.516Z,50.53
2019-03-15T06:10:16.203Z,50.30
2019-03-15T06:12:47.327Z,50.87
2019-03-15T06:15:16.988Z,50.07
2019-03-15T06:17:46.687Z,50.70
2019-03-15T06:20:16.651Z,51.07
2019-03-15T06:22:46.307Z,52.43
2019-03-15T06:25:15.992Z,51.03
2019-03-15T06:27:45.656Z,50.87
2019-03-15T06:30:16.447Z,51.07
2019-03-15T06:32:46.148Z,51.47
2019-03-15T06:35:15.789Z,51.70
2019-03-15T06:37:45.463Z,51.83
2019-03-15T06:40:15.151Z,52.27
2019-03-15T06:42:44.809Z,50.00
2019-03-15T06:45:15.566Z,49.70
2019-03-15T06:47:45.168Z,49.53
2019-03-15T06:50:14.834Z,50.23
2019-03-15T06:52:44.492Z,50.87
2019-03-15T06:55:14.180Z,50.43
2019-03-15T06:57:43.829Z,50.50
2019-03-15T07:00:16.283Z,50.80
2019-03-15T07:02:46.398Z,52.57
2019-03-15T07:05:16.413Z,51.23
2019-03-15T07:07:46.087Z,50.10
2019-03-15T07:10:17.205Z,51.87
2019-03-15T07:12:46.869Z,52.23
2019-03-15T07:15:16.830Z,48.93
2019-03-15T07:17:46.535Z,50.23
2019-03-15T07:20:17.404Z,51.90
2019-03-15T07:22:47.075Z,51.67
2019-03-15T07:25:16.739Z,52.80
2019-03-15T07:27:47.141Z,50.33
2019-03-15T07:30:17.224Z,51.23
2019-03-15T07:32:46.909Z,49.90
2019-03-15T07:35:16.558Z,50.53
2019-03-15T07:37:47.119Z,50.47
2019-03-15T07:40:18.300Z,51.10
2019-03-15T07:42:48.381Z,49.93
2019-03-15T07:45:18.163Z,51.30
2019-03-15T07:47:47.905Z,50.57
2019-03-15T07:50:17.565Z,50.17
2019-03-15T07:52:47.224Z,50.07
2019-03-15T07:55:16.905Z,50.57
2019-03-15T07:57:46.566Z,50.07
2019-03-15T08:00:18.111Z,51.63
2019-03-15T08:02:47.804Z,51.93
2019-03-15T08:05:17.449Z,48.70
2019-03-15T08:07:47.118Z,49.87
2019-03-15T08:10:17.118Z,49.60
2019-03-15T08:12:49.672Z,47.77
2019-03-15T08:15:18.141Z,50.20
2019-03-15T08:17:47.853Z,52.87
2019-03-15T08:20:17.507Z,49.67
2019-03-15T08:22:47.172Z,49.97
2019-03-15T08:25:16.862Z,50.00
2019-03-15T08:27:46.604Z,50.60
2019-03-15T08:30:18.862Z,49.60
2019-03-15T08:32:48.542Z,49.80
2019-03-15T08:35:18.210Z,50.83
2019-03-15T08:37:48.285Z,52.13
2019-03-15T08:40:18.246Z,49.67
2019-03-15T08:42:48.203Z,49.43
2019-03-15T08:45:20.570Z,51.80
2019-03-15T08:47:50.253Z,50.07
2019-03-15T08:50:24.266Z,49.00
2019-03-15T08:52:54.130Z,50.77
2019-03-15T08:55:23.897Z,50.50
2019-03-15T08:57:53.570Z,50.60
2019-03-15T09:00:23.238Z,50.90
2019-03-15T09:02:52.901Z,50.57
2019-03-15T09:05:22.645Z,49.57
2019-03-15T09:07:52.342Z,50.07
2019-03-15T09:10:24.222Z,50.17
2019-03-15T09:12:54.021Z,50.50
2019-03-15T09:15:23.732Z,50.63
2019-03-15T09:17:53.396Z,51.63
2019-03-15T09:20:29.679Z,51.83
2019-03-15T09:22:56.095Z,50.63
2019-03-15T09:25:25.760Z,52.37
2019-03-15T09:27:55.429Z,51.30
2019-03-15T09:30:25.112Z,54.20
2019-03-15T09:32:54.774Z,51.23
2019-03-15T09:35:24.445Z,52.03
2019-03-15T09:37:54.135Z,53.53
2019-03-15T09:40:25.755Z,52.67
2019-03-15T09:42:55.166Z,52.77
2019-03-15T09:45:24.841Z,53.27
2019-03-15T09:47:54.538Z,53.30
2019-03-15T09:50:36.013Z,53.10
2019-03-15T09:52:57.037Z,53.20
2019-03-15T09:55:33.012Z,52.43
2019-03-15T09:57:58.456Z,52.10
2019-03-15T10:00:28.376Z,55.73
2019-03-15T10:02:58.026Z,55.50
2019-03-15T10:05:27.737Z,52.43
2019-03-15T10:07:58.747Z,52.03
2019-03-15T10:10:28.405Z,53.63
2019-03-15T10:13:06.270Z,53.33
2019-03-15T10:15:35.239Z,53.03
2019-03-15T10:18:05.068Z,53.70
2019-03-15T10:20:34.723Z,53.03
2019-03-15T10:23:06.280Z,51.83
2019-03-15T10:25:46.257Z,53.10
2019-03-15T10:28:07.316Z,53.03
2019-03-15T10:30:38.389Z,55.30
2019-03-15T10:33:08.438Z,51.53
2019-03-15T10:35:38.095Z,51.50
2019-03-15T10:38:07.786Z,53.17
2019-03-15T10:40:37.446Z,53.10
2019-03-15T10:43:07.136Z,53.40
2019-03-15T10:45:36.804Z,53.33
2019-03-15T10:48:08.060Z,51.93
2019-03-15T10:50:37.824Z,52.97
2019-03-15T10:53:07.513Z,52.83
2019-03-15T10:55:37.163Z,54.73
2019-03-15T10:58:06.851Z,57.67
2019-03-15T11:00:37.012Z,54.93
2019-03-15T11:03:06.692Z,52.97
2019-03-15T11:05:36.436Z,52.63
2019-03-15T11:08:06.655Z,54.43
2019-03-15T11:10:36.325Z,55.10
2019-03-15T11:13:05.988Z,53.30
2019-03-15T11:15:35.705Z,52.67
2019-03-15T11:18:05.354Z,52.27
2019-03-15T11:20:35.025Z,62.00
2019-03-15T11:23:04.732Z,52.10
2019-03-15T11:25:34.462Z,52.10
2019-03-15T11:28:04.135Z,53.60
2019-03-15T11:30:33.817Z,54.83
2019-03-15T11:33:03.476Z,52.17
2019-03-15T11:35:33.209Z,53.33
2019-03-15T11:38:03.002Z,54.67
2019-03-15T11:40:32.685Z,52.17
2019-03-15T11:43:02.341Z,53.33
2019-03-15T11:45:32.066Z,54.37
2019-03-15T11:48:04.163Z,52.90
2019-03-15T11:50:33.098Z,52.63
2019-03-15T11:53:02.792Z,54.40
2019-03-15T11:55:32.638Z,53.07
2019-03-15T11:58:02.299Z,53.07
2019-03-15T12:00:31.989Z,54.97
2019-03-15T12:03:01.634Z,52.70
2019-03-15T12:05:31.303Z,51.57
2019-03-15T12:08:01.057Z,55.07
2019-03-15T12:10:31.000Z,54.87
2019-03-15T12:13:00.653Z,53.07
2019-03-15T12:15:30.351Z,54.30
2019-03-15T12:18:00.088Z,57.27
2019-03-15T12:20:29.810Z,53.40
2019-03-15T12:22:59.501Z,53.50
2019-03-15T12:25:31.419Z,52.60
2019-03-15T12:28:04.888Z,54.67
2019-03-15T12:30:34.664Z,56.47
2019-03-15T12:33:05.425Z,53.33
2019-03-15T12:35:35.116Z,51.67
2019-03-15T12:38:04.817Z,51.83
2019-03-15T12:40:34.463Z,53.70
2019-03-15T12:43:04.119Z,53.20
2019-03-15T12:45:33.831Z,53.33
2019-03-15T12:48:03.485Z,54.17
2019-03-15T12:50:33.165Z,53.33
2019-03-15T12:53:02.839Z,53.20
2019-03-15T12:55:32.538Z,51.50
2019-03-15T12:58:02.255Z,51.53
2019-03-15T13:00:31.923Z,54.63
2019-03-15T13:03:01.601Z,52.93
2019-03-15T13:05:31.276Z,52.50
2019-03-15T13:08:00.976Z,52.13
2019-03-15T13:10:30.639Z,54.90
2019-03-15T13:13:00.352Z,54.03
2019-03-15T13:15:32.005Z,53.73
2019-03-15T13:18:01.521Z,53.80
2019-03-15T13:20:31.122Z,59.40
2019-03-15T13:23:00.831Z,55.37
2019-03-15T13:25:30.499Z,54.77
2019-03-15T13:28:00.196Z,56.13
2019-03-15T13:30:29.927Z,56.60
2019-03-15T13:32:59.603Z,54.53
2019-03-15T13:35:29.267Z,53.73
2019-03-15T13:37:59.067Z,56.37
2019-03-15T13:40:28.868Z,58.93
2019-03-15T13:42:58.538Z,54.23
2019-03-15T13:45:28.232Z,54.57
2019-03-15T13:47:57.906Z,55.27
2019-03-15T13:50:27.638Z,56.00
2019-03-15T13:52:57.353Z,61.10
2019-03-15T13:55:27.058Z,54.97
2019-03-15T13:57:56.766Z,53.60
2019-03-15T14:00:26.448Z,54.57
2019-03-15T14:02:56.103Z,55.67
2019-03-15T14:05:25.771Z,53.97
2019-03-15T14:07:55.529Z,57.13
2019-03-15T14:10:25.182Z,55.30
2019-03-15T14:12:54.849Z,54.30
2019-03-15T14:15:25.037Z,55.47
2019-03-15T14:17:54.819Z,54.30
2019-03-15T14:20:24.470Z,57.67
2019-03-15T14:22:54.146Z,57.43
2019-03-15T14:25:27.238Z,55.03
2019-03-15T14:27:56.963Z,55.57
2019-03-15T14:30:28.296Z,54.90
2019-03-15T14:32:57.957Z,56.67
2019-03-15T14:35:27.643Z,54.33
2019-03-15T14:37:57.451Z,55.33
2019-03-15T14:40:27.542Z,56.73
2019-03-15T14:42:57.565Z,53.87
2019-03-15T14:45:28.838Z,53.63
2019-03-15T14:47:58.512Z,57.03
2019-03-15T14:50:28.161Z,55.73
2019-03-15T14:52:57.897Z,53.37
2019-03-15T14:55:27.790Z,52.47
2019-03-15T14:58:00.226Z,55.37
2019-03-15T15:00:28.911Z,57.57
2019-03-15T15:02:58.580Z,55.47
2019-03-15T15:05:28.237Z,54.87
2019-03-15T15:07:58.049Z,54.60
2019-03-15T15:10:28.387Z,58.27
2019-03-15T15:12:58.086Z,55.47
2019-03-15T15:15:27.782Z,55.20
2019-03-15T15:17:57.459Z,54.10
2019-03-15T15:20:27.130Z,53.83
2019-03-15T15:22:56.806Z,57.53
2019-03-15T15:25:27.265Z,55.03
2019-03-15T15:28:04.279Z,58.93
2019-03-15T15:30:30.106Z,55.73
2019-03-15T15:33:00.762Z,56.27
2019-03-15T15:35:31.012Z,55.27
2019-03-15T15:38:01.028Z,54.70
2019-03-15T15:40:30.761Z,55.50
2019-03-15T15:43:00.529Z,57.00
2019-03-15T15:45:30.218Z,55.17
2019-03-15T15:47:59.895Z,57.00
2019-03-15T15:50:29.559Z,54.73
2019-03-15T15:52:59.254Z,57.57
2019-03-15T15:55:28.920Z,54.17
2019-03-15T15:57:58.599Z,54.00
2019-03-15T16:00:28.290Z,54.33
2019-03-15T16:02:57.944Z,56.23
2019-03-15T16:05:27.697Z,56.70
2019-03-15T16:07:57.451Z,59.60
2019-03-15T16:10:27.102Z,53.03
2019-03-15T16:12:56.848Z,56.93
2019-03-15T16:15:26.536Z,57.03
2019-03-15T16:17:56.286Z,55.30
2019-03-15T16:20:25.983Z,56.33
2019-03-15T16:22:55.689Z,54.13
2019-03-15T16:25:25.355Z,55.23
2019-03-15T16:27:55.011Z,53.50
2019-03-15T16:30:24.756Z,55.70
2019-03-15T16:32:54.429Z,55.40
2019-03-15T16:35:24.101Z,53.70
2019-03-15T16:37:53.791Z,53.73
2019-03-15T16:40:23.481Z,56.50
2019-03-15T16:42:53.193Z,53.43
2019-03-15T16:45:31.969Z,55.53
2019-03-15T16:48:03.089Z,55.17
2019-03-15T16:50:32.796Z,54.20
2019-03-15T16:53:04.625Z,54.43
2019-03-15T16:55:34.818Z,55.80
2019-03-15T16:58:04.534Z,55.03
2019-03-15T17:00:34.222Z,54.87
2019-03-15T17:03:03.936Z,54.07
2019-03-15T17:05:33.608Z,55.53
2019-03-15T17:08:03.340Z,52.43
2019-03-15T17:10:33.036Z,53.97
2019-03-15T17:13:03.557Z,55.93
2019-03-15T17:15:33.811Z,55.40
2019-03-15T17:18:03.548Z,56.73
2019-03-15T17:20:34.744Z,53.60
2019-03-15T17:23:04.433Z,53.03
2019-03-15T17:25:34.092Z,55.47
2019-03-15T17:28:03.761Z,54.07
2019-03-15T17:30:33.541Z,53.00
2019-03-15T17:33:06.047Z,55.67
2019-03-15T17:35:34.579Z,57.50
2019-03-15T17:38:04.254Z,53.40
2019-03-15T17:40:33.947Z,53.43
2019-03-15T17:43:04.275Z,56.57
2019-03-15T17:45:33.983Z,55.60
2019-03-15T17:48:03.681Z,53.67
2019-03-15T17:50:33.340Z,54.07
2019-03-15T17:53:03.019Z,57.67
2019-03-15T17:55:32.717Z,56.53
2019-03-15T17:58:03.787Z,58.40
2019-03-15T18:00:51.085Z,53.87
2019-03-15T18:03:22.271Z,55.30
2019-03-15T18:05:53.536Z,56.77
2019-03-15T18:08:23.315Z,54.27
2019-03-15T18:10:53.104Z,59.87
2019-03-15T18:13:22.775Z,61.77
2019-03-15T18:15:52.470Z,57.27
2019-03-15T18:18:22.143Z,57.47
2019-03-15T18:20:51.962Z,55.90
2019-03-15T18:23:21.662Z,55.07
2019-03-15T18:25:51.353Z,54.20
2019-03-15T18:28:21.426Z,52.13
2019-03-15T18:30:51.133Z,55.90
2019-03-15T18:33:20.908Z,55.07
2019-03-15T18:35:50.582Z,56.37
2019-03-15T18:38:20.361Z,54.67
2019-03-15T18:40:50.049Z,53.53
2019-03-15T18:43:20.014Z,55.43
2019-03-15T18:45:51.803Z,54.80
2019-03-15T18:48:22.605Z,58.83
2019-03-15T18:50:52.282Z,56.60
2019-03-15T18:53:22.049Z,55.40
2019-03-15T18:55:51.831Z,52.80
2019-03-15T18:58:21.491Z,71.70
2019-03-15T19:00:51.178Z,52.87
2019-03-15T19:03:20.845Z,53.87
2019-03-15T19:05:50.635Z,52.77
2019-03-15T19:08:20.276Z,57.50
2019-03-15T19:10:49.937Z,57.50
2019-03-15T19:13:19.606Z,55.43
2019-03-15T19:15:49.375Z,56.17
2019-03-15T19:18:19.047Z,54.43
2019-03-15T19:20:48.758Z,57.07
2019-03-15T19:23:18.708Z,55.37
2019-03-15T19:25:48.391Z,54.47
2019-03-15T19:28:18.125Z,55.23
2019-03-15T19:30:47.892Z,53.23
2019-03-15T19:33:17.734Z,54.23
2019-03-15T19:35:47.512Z,55.83
2019-03-15T19:38:17.221Z,57.03
2019-03-15T19:40:47.024Z,54.20
2019-03-15T19:43:16.620Z,53.03
2019-03-15T19:45:46.409Z,53.70
2019-03-15T19:48:16.067Z,58.17
2019-03-15T19:50:45.760Z,54.63
2019-03-15T19:53:15.442Z,57.37
2019-03-15T19:55:45.114Z,53.53
2019-03-15T19:58:14.875Z,54.23
2019-03-15T20:00:44.558Z,54.17
2019-03-15T20:03:14.257Z,55.33
2019-03-15T20:05:43.887Z,52.43
2019-03-15T20:08:13.588Z,57.33
2019-03-15T20:10:43.237Z,54.27
2019-03-15T20:13:14.445Z,57.27
2019-03-15T20:15:44.134Z,53.70
2019-03-15T20:18:13.875Z,54.40
2019-03-15T20:20:43.617Z,52.53
2019-03-15T20:23:13.576Z,53.60
2019-03-15T20:25:43.321Z,54.23
2019-03-15T20:28:13.114Z,55.90
2019-03-15T20:30:51.671Z,50.33
2019-03-15T20:33:14.256Z,54.30
2019-03-15T20:35:43.950Z,51.37
2019-03-15T20:38:13.721Z,57.70
2019-03-15T20:40:43.406Z,53.40
2019-03-15T20:43:13.071Z,54.83
2019-03-15T20:45:42.781Z,54.70
2019-03-15T20:48:12.448Z,54.07
2019-03-15T20:50:47.000Z,53.23
2019-03-15T20:53:13.732Z,53.77
2019-03-15T20:55:43.471Z,50.80
2019-03-15T20:58:13.350Z,53.17
2019-03-15T21:00:43.042Z,55.27
2019-03-15T21:03:12.712Z,52.47
2019-03-15T21:05:42.399Z,54.20
2019-03-15T21:08:12.074Z,52.63
2019-03-15T21:10:41.798Z,54.90
2019-03-15T21:13:11.497Z,53.40
2019-03-15T21:15:42.923Z,53.93
2019-03-15T21:18:12.563Z,50.67
2019-03-15T21:20:42.352Z,54.93
2019-03-15T21:23:12.064Z,55.97
2019-03-15T21:25:41.748Z,51.63
2019-03-15T21:28:11.406Z,53.33
2019-03-15T21:30:48.311Z,53.23
2019-03-15T21:33:12.601Z,53.77
2019-03-15T21:35:42.295Z,55.60
2019-03-15T21:38:14.425Z,55.97
2019-03-15T21:40:44.163Z,52.97
2019-03-15T21:43:13.755Z,53.47
2019-03-15T21:45:43.518Z,57.60
2019-03-15T21:48:13.421Z,52.03
2019-03-15T21:50:43.094Z,55.93
2019-03-15T21:53:12.778Z,54.03
2019-03-15T21:55:42.501Z,54.70
2019-03-15T21:58:12.172Z,52.47
2019-03-15T22:00:41.867Z,52.90
2019-03-15T22:03:11.536Z,50.57
2019-03-15T22:05:41.196Z,54.17
2019-03-15T22:08:10.820Z,52.77
2019-03-15T22:10:40.694Z,52.73
2019-03-15T22:13:10.388Z,54.57
2019-03-15T22:15:40.092Z,54.83
2019-03-15T22:18:09.747Z,51.43
2019-03-15T22:20:39.487Z,51.97
2019-03-15T22:23:09.180Z,53.27
2019-03-15T22:25:38.866Z,53.07
2019-03-15T22:28:08.541Z,50.90
2019-03-15T22:30:38.271Z,52.77
2019-03-15T22:33:07.971Z,51.97
2019-03-15T22:35:37.498Z,52.63
2019-03-15T22:38:07.274Z,53.20
2019-03-15T22:40:37.046Z,52.83
2019-03-15T22:43:06.828Z,52.73
2019-03-15T22:45:36.526Z,50.37
2019-03-15T22:48:06.514Z,52.47
2019-03-15T22:50:36.318Z,49.80
2019-03-15T22:53:05.965Z,50.57
2019-03-15T22:55:35.636Z,51.57
2019-03-15T22:58:05.370Z,49.70
2019-03-15T23:00:38.772Z,50.37
2019-03-15T23:03:08.569Z,48.50
2019-03-15T23:05:38.314Z,51.50
2019-03-15T23:08:08.021Z,51.07
2019-03-15T23:10:37.711Z,51.43
2019-03-15T23:13:07.437Z,51.27
2019-03-15T23:15:37.135Z,48.53
2019-03-15T23:18:06.907Z,51.80
2019-03-15T23:20:36.599Z,51.03
2019-03-15T23:23:06.347Z,50.63
2019-03-15T23:25:36.195Z,52.60
2019-03-15T23:28:05.850Z,48.10
2019-03-15T23:30:35.534Z,50.90
2019-03-15T23:33:05.242Z,50.03
2019-03-15T23:35:34.963Z,48.83
2019-03-15T23:38:04.624Z,48.27
2019-03-15T23:40:34.295Z,48.87
2019-03-15T23:43:03.973Z,47.53
2019-03-15T23:45:33.682Z,48.87
2019-03-15T23:48:03.363Z,50.83
2019-03-15T23:50:33.086Z,46.33
2019-03-15T23:53:02.793Z,45.80
2019-03-15T23:55:32.606Z,48.03
2019-03-15T23:58:02.371Z,50.00
